Time,TemperatureF,DewpointF,PressureIn,WindDirection,WindDirectionDegrees,WindSpeedMPH,WindSpeedGustMPH,Humidity,HourlyPrecipIn,Conditions,Clouds,dailyrainin,SoftwareType,DateUTC
2013-11-22 00:01:00,48.1,41.1,30.19,West,270,0.0,0.0,77,0.00,,,0.00,Weather8,2013-11-22 05:01:00,
2013-11-22 00:02:00,48.1,41.1,30.19,West,270,0.0,0.0,77,0.00,,,0.00,Weather8,2013-11-22 05:02:00,
2013-11-22 00:03:00,48.1,41.1,30.19,West,270,0.0,0.0,77,0.00,,,0.00,Weather8,2013-11-22 05:03:00,
2013-11-22 00:08:00,48.1,41.1,30.18,West,270,0.0,0.0,77,0.00,,,0.00,Weather8,2013-11-22 05:08:00,
2013-11-22 00:13:00,48.1,41.1,30.18,West,270,0.0,0.0,77,0.00,,,0.00,Weather8,2013-11-22 05:13:00,
2013-11-22 00:18:00,48.2,41.3,30.18,West,270,0.0,0.0,77,0.00,,,0.00,Weather8,2013-11-22 05:18:00,
2013-11-22 00:23:00,48.2,41.3,30.18,West,270,0.0,0.0,77,0.00,,,0.00,Weather8,2013-11-22 05:23:00,
2013-11-22 00:28:00,48.2,41.3,30.18,West,270,0.0,0.0,77,0.00,,,0.00,Weather8,2013-11-22 05:28:00,
2013-11-22 00:33:00,48.1,41.5,30.18,West,270,0.0,0.2,78,0.00,,,0.00,Weather8,2013-11-22 05:33:00,
2013-11-22 00:38:00,48.2,41.6,30.18,WNW,292,0.4,0.4,78,0.00,,,0.00,Weather8,2013-11-22 05:38:00,
2013-11-22 00:43:00,48.1,41.5,30.17,West,270,0.0,0.4,78,0.00,,,0.00,Weather8,2013-11-22 05:43:00,
2013-11-22 00:48:00,48.1,41.5,30.17,West,270,0.0,0.4,78,0.00,,,0.00,Weather8,2013-11-22 05:48:00,
2013-11-22 00:53:00,48.2,41.6,30.17,West,270,0.0,0.0,78,0.00,,,0.00,Weather8,2013-11-22 05:53:00,
2013-11-22 00:58:00,48.2,41.6,30.16,West,270,0.0,0.0,78,0.00,,,0.00,Weather8,2013-11-22 05:58:00,
2013-11-22 01:03:00,48.2,41.6,30.16,West,270,0.0,0.0,78,0.00,,,0.00,Weather8,2013-11-22 06:03:00,
2013-11-22 01:08:00,48.2,41.6,30.16,West,270,0.0,0.0,78,0.00,,,0.00,Weather8,2013-11-22 06:08:00,
2013-11-22 01:13:00,48.2,41.6,30.16,West,270,0.0,0.0,78,0.00,,,0.00,Weather8,2013-11-22 06:13:00,
2013-11-22 01:18:00,48.2,41.6,30.16,West,270,0.0,0.0,78,0.00,,,0.00,Weather8,2013-11-22 06:18:00,
2013-11-22 01:23:00,48.2,41.6,30.16,West,270,0.0,0.0,78,0.00,,,0.00,Weather8,2013-11-22 06:23:00,
2013-11-22 01:28:00,48.2,41.6,30.16,West,270,0.0,0.0,78,0.00,,,0.00,Weather8,2013-11-22 06:28:00,
2013-11-22 01:33:00,48.2,41.6,30.16,SSE,157,0.4,0.4,78,0.00,,,0.00,Weather8,2013-11-22 06:33:00,
2013-11-22 01:38:00,48.2,41.6,30.16,SSE,157,0.0,0.4,78,0.00,,,0.00,Weather8,2013-11-22 06:38:00,
2013-11-22 01:43:00,48.1,41.5,30.15,SSE,157,0.0,0.4,78,0.00,,,0.00,Weather8,2013-11-22 06:43:00,
2013-11-22 01:48:00,48.1,41.5,30.15,SSE,157,0.7,0.7,78,0.00,,,0.00,Weather8,2013-11-22 06:48:00,
2013-11-22 01:53:00,48.1,41.8,30.15,SSE,157,0.0,0.7,79,0.00,,,0.00,Weather8,2013-11-22 06:53:00,
2013-11-22 01:58:00,48.1,41.8,30.15,SSE,157,0.0,0.7,79,0.00,,,0.00,Weather8,2013-11-22 06:58:00,
2013-11-22 02:03:00,48.1,41.8,30.14,SSE,157,0.0,0.0,79,0.00,,,0.00,Weather8,2013-11-22 07:03:00,
2013-11-22 02:08:00,48.1,41.8,30.14,SSE,157,0.0,0.0,79,0.00,,,0.00,Weather8,2013-11-22 07:08:00,
2013-11-22 02:13:00,48.1,41.8,30.14,South,180,0.0,0.0,79,0.00,,,0.00,Weather8,2013-11-22 07:13:00,
2013-11-22 02:18:00,47.9,41.7,30.13,South,180,0.0,0.0,79,0.00,,,0.00,Weather8,2013-11-22 07:18:00,
2013-11-22 02:23:00,47.9,41.7,30.13,South,180,0.0,0.0,79,0.00,,,0.00,Weather8,2013-11-22 07:23:00,
2013-11-22 02:28:00,47.7,41.5,30.12,South,180,0.4,0.4,79,0.00,,,0.00,Weather8,2013-11-22 07:28:00,
2013-11-22 02:33:00,47.5,41.3,30.12,SSE,157,0.2,0.7,79,0.00,,,0.00,Weather8,2013-11-22 07:33:00,
2013-11-22 02:38:00,47.3,41.1,30.12,SSE,157,0.0,0.7,79,0.00,,,0.00,Weather8,2013-11-22 07:38:00,
2013-11-22 02:43:00,47.2,41.0,30.11,SSE,157,0.7,0.9,79,0.00,,,0.00,Weather8,2013-11-22 07:43:00,
2013-11-22 02:48:00,47.0,40.5,30.11,SSE,157,0.0,0.9,78,0.00,,,0.00,Weather8,2013-11-22 07:48:00,
2013-11-22 02:53:00,46.8,40.3,30.11,SSW,202,0.2,0.9,78,0.00,,,0.00,Weather8,2013-11-22 07:53:00,
2013-11-22 02:58:00,46.6,40.1,30.10,SSE,157,0.0,0.7,78,0.00,,,0.00,Weather8,2013-11-22 07:58:00,
2013-11-22 03:03:00,46.4,40.3,30.11,West,270,0.0,0.7,79,0.00,,,0.00,Weather8,2013-11-22 08:03:00,
2013-11-22 03:08:00,46.4,40.3,30.11,West,270,0.0,0.7,79,0.00,,,0.00,Weather8,2013-11-22 08:08:00,
2013-11-22 03:13:00,46.4,40.3,30.11,West,270,0.0,0.2,79,0.00,,,0.00,Weather8,2013-11-22 08:13:00,
2013-11-22 03:18:00,46.6,40.5,30.10,West,270,0.0,0.2,79,0.00,,,0.00,Weather8,2013-11-22 08:18:00,
2013-11-22 03:23:00,46.6,40.5,30.10,West,270,0.0,0.0,79,0.00,,,0.00,Weather8,2013-11-22 08:23:00,
2013-11-22 03:29:00,46.6,40.5,30.10,West,270,0.0,0.0,79,0.00,,,0.00,Weather8,2013-11-22 08:29:00,
2013-11-22 03:34:00,46.6,40.5,30.10,West,270,0.0,0.0,79,0.00,,,0.00,Weather8,2013-11-22 08:34:00,
2013-11-22 03:39:00,46.6,40.5,30.09,West,270,0.0,0.0,79,0.00,,,0.00,Weather8,2013-11-22 08:39:00,
2013-11-22 03:44:00,46.6,40.5,30.10,West,270,0.0,0.0,79,0.00,,,0.00,Weather8,2013-11-22 08:44:00,
2013-11-22 03:49:00,46.6,40.5,30.10,West,270,0.4,0.4,79,0.00,,,0.00,Weather8,2013-11-22 08:49:00,
2013-11-22 03:54:00,46.8,40.7,30.10,WNW,292,0.0,0.4,79,0.00,,,0.00,Weather8,2013-11-22 08:54:00,
2013-11-22 03:59:00,46.8,40.7,30.09,WNW,292,0.0,0.4,79,0.00,,,0.00,Weather8,2013-11-22 08:59:00,
2013-11-22 04:04:00,46.8,41.1,30.09,SW,225,0.7,0.7,80,0.00,,,0.00,Weather8,2013-11-22 09:04:00,
2013-11-22 04:09:00,46.8,41.1,30.09,SW,225,0.7,0.7,80,0.00,,,0.00,Weather8,2013-11-22 09:09:00,
2013-11-22 04:14:00,46.8,41.1,30.09,SW,225,0.7,0.7,80,0.00,,,0.00,Weather8,2013-11-22 09:14:00,
2013-11-22 04:19:00,46.8,41.1,30.09,SW,225,0.7,0.7,80,0.00,,,0.00,Weather8,2013-11-22 09:19:00,
2013-11-22 04:24:00,46.8,41.1,30.09,SW,225,0.7,0.7,80,0.00,,,0.00,Weather8,2013-11-22 09:24:00,
2013-11-22 04:29:00,46.8,41.1,30.09,SW,225,0.7,0.7,80,0.00,,,0.00,Weather8,2013-11-22 09:29:00,
2013-11-22 04:34:00,46.6,40.9,30.08,South,180,0.0,0.7,80,0.00,,,0.00,Weather8,2013-11-22 09:34:00,
2013-11-22 04:39:00,46.6,40.9,30.08,SSW,202,0.0,0.7,80,0.00,,,0.00,Weather8,2013-11-22 09:39:00,
2013-11-22 04:44:00,46.6,40.9,30.07,SSW,202,0.0,0.7,80,0.00,,,0.00,Weather8,2013-11-22 09:44:00,
2013-11-22 04:49:00,46.6,40.9,30.06,SE,135,0.0,0.4,80,0.00,,,0.00,Weather8,2013-11-22 09:49:00,
2013-11-22 04:54:00,46.6,40.9,30.06,SE,135,0.0,0.0,80,0.00,,,0.00,Weather8,2013-11-22 09:54:00,
2013-11-22 04:59:00,46.6,40.9,30.06,SE,135,0.0,0.0,80,0.00,,,0.00,Weather8,2013-11-22 09:59:00,
2013-11-22 05:04:00,46.6,40.9,30.06,SE,135,0.0,0.0,80,0.00,,,0.00,Weather8,2013-11-22 10:04:00,
2013-11-22 05:09:00,46.8,41.3,30.07,West,270,0.0,0.0,81,0.00,,,0.00,Weather8,2013-11-22 10:09:00,
2013-11-22 05:14:00,46.8,41.3,30.07,WNW,292,0.0,0.4,81,0.00,,,0.00,Weather8,2013-11-22 10:14:00,
2013-11-22 05:19:00,46.8,41.3,30.07,SSW,202,0.0,0.4,81,0.00,,,0.00,Weather8,2013-11-22 10:19:00,
2013-11-22 05:24:00,46.8,41.3,30.06,SSW,202,0.0,0.4,81,0.00,,,0.00,Weather8,2013-11-22 10:24:00,
2013-11-22 05:29:00,46.8,41.3,30.06,SSW,202,0.0,0.4,81,0.00,,,0.00,Weather8,2013-11-22 10:29:00,
2013-11-22 05:34:00,46.8,41.3,30.06,SSW,202,0.0,0.0,81,0.00,,,0.00,Weather8,2013-11-22 10:34:00,
2013-11-22 05:39:00,46.8,41.3,30.05,SSE,157,0.2,0.4,81,0.00,,,0.00,Weather8,2013-11-22 10:39:00,
2013-11-22 05:44:00,47.0,41.5,30.05,SSW,202,0.2,0.9,81,0.00,,,0.00,Weather8,2013-11-22 10:44:00,
2013-11-22 05:49:00,47.0,41.5,30.06,SSW,202,0.0,0.9,81,0.00,,,0.00,Weather8,2013-11-22 10:49:00,
2013-11-22 05:54:00,47.0,41.5,30.05,SW,225,0.0,0.4,81,0.00,,,0.00,Weather8,2013-11-22 10:54:00,
2013-11-22 05:59:00,47.0,41.5,30.05,SSE,157,0.0,0.0,81,0.00,,,0.00,Weather8,2013-11-22 10:59:00,
2013-11-22 06:04:00,47.0,41.5,30.05,SSE,157,0.0,0.4,81,0.00,,,0.00,Weather8,2013-11-22 11:04:00,
2013-11-22 06:09:00,47.2,41.7,30.04,SSW,202,0.4,0.4,81,0.00,,,0.00,Weather8,2013-11-22 11:09:00,
2013-11-22 06:14:00,47.2,41.9,30.04,South,180,0.4,0.4,82,0.00,,,0.00,Weather8,2013-11-22 11:14:00,
2013-11-22 06:19:00,47.2,41.9,30.04,SSW,202,0.4,0.7,82,0.00,,,0.00,Weather8,2013-11-22 11:19:00,
2013-11-22 06:24:00,47.2,41.9,30.05,SW,225,0.2,0.7,82,0.00,,,0.00,Weather8,2013-11-22 11:24:00,
2013-11-22 06:29:00,47.2,41.9,30.04,SW,225,0.0,0.7,82,0.00,,,0.00,Weather8,2013-11-22 11:29:00,
2013-11-22 06:34:00,47.3,42.1,30.04,SW,225,0.0,0.7,82,0.00,,,0.00,Weather8,2013-11-22 11:34:00,
2013-11-22 06:39:00,47.3,42.1,30.04,SSE,157,0.0,0.4,82,0.00,,,0.00,Weather8,2013-11-22 11:39:00,
2013-11-22 06:44:00,47.3,42.1,30.04,SW,225,0.0,0.4,82,0.00,,,0.00,Weather8,2013-11-22 11:44:00,
2013-11-22 06:49:00,47.3,42.5,30.04,South,180,0.4,0.9,83,0.00,,,0.00,Weather8,2013-11-22 11:49:00,
2013-11-22 06:54:00,47.3,42.1,30.03,SSW,202,0.0,0.9,82,0.00,,,0.00,Weather8,2013-11-22 11:54:00,
2013-11-22 06:59:00,47.3,42.5,30.04,SSW,202,0.0,0.9,83,0.00,,,0.00,Weather8,2013-11-22 11:59:00,
2013-11-22 07:04:00,47.5,42.6,30.03,SSW,202,0.0,0.4,83,0.00,,,0.00,Weather8,2013-11-22 12:04:00,
2013-11-22 07:09:00,47.5,42.6,30.02,SSE,157,0.4,0.4,83,0.00,,,0.00,Weather8,2013-11-22 12:09:00,
2013-11-22 07:14:00,47.5,42.6,30.03,SSW,202,0.0,0.4,83,0.00,,,0.00,Weather8,2013-11-22 12:14:00,
2013-11-22 07:19:00,47.7,42.8,30.03,SSW,202,0.7,0.7,83,0.00,,,0.00,Weather8,2013-11-22 12:19:00,
2013-11-22 07:24:00,47.7,42.8,30.02,SSW,202,1.1,1.1,83,0.00,,,0.00,Weather8,2013-11-22 12:24:00,
2013-11-22 07:29:00,47.9,43.3,30.02,SW,225,1.1,1.6,84,0.00,,,0.00,Weather8,2013-11-22 12:29:00,
2013-11-22 07:34:00,47.9,43.3,30.03,SW,225,0.4,1.6,84,0.00,,,0.00,Weather8,2013-11-22 12:34:00,
2013-11-22 07:39:00,48.1,43.5,30.03,SW,225,0.9,1.1,84,0.00,,,0.00,Weather8,2013-11-22 12:39:00,
2013-11-22 07:44:00,48.2,43.6,30.02,South,180,1.1,1.1,84,0.00,,,0.00,Weather8,2013-11-22 12:44:00,
2013-11-22 07:49:00,48.2,43.6,30.02,SW,225,0.4,1.1,84,0.00,,,0.00,Weather8,2013-11-22 12:49:00,
2013-11-22 07:54:00,48.4,43.7,30.02,SW,225,1.6,1.6,84,0.00,,,0.00,Weather8,2013-11-22 12:54:00,
2013-11-22 07:59:00,48.8,44.5,30.02,SSW,202,0.7,1.6,85,0.00,,,0.00,Weather8,2013-11-22 12:59:00,
2013-11-22 08:04:00,49.0,44.7,30.02,SW,225,1.1,1.6,85,0.00,,,0.00,Weather8,2013-11-22 13:04:00,
2013-11-22 08:09:00,49.3,44.9,30.02,SW,225,1.6,2.5,85,0.00,,,0.00,Weather8,2013-11-22 13:09:00,
2013-11-22 08:14:00,49.7,45.6,30.02,South,180,1.1,2.5,86,0.00,,,0.00,Weather8,2013-11-22 13:14:00,
2013-11-22 08:19:00,49.9,45.8,30.01,SW,225,1.6,2.5,86,0.00,,,0.00,Weather8,2013-11-22 13:19:00,
2013-11-22 08:24:00,50.0,45.9,30.01,SW,225,1.3,1.6,86,0.00,,,0.00,Weather8,2013-11-22 13:24:00,
2013-11-22 08:29:00,50.0,45.9,30.00,SW,225,3.4,3.4,86,0.00,,,0.00,Weather8,2013-11-22 13:29:00,
2013-11-22 08:34:00,50.4,46.3,30.00,SSW,202,0.9,3.4,86,0.00,,,0.00,Weather8,2013-11-22 13:34:00,
2013-11-22 08:39:00,50.6,46.4,30.00,SW,225,1.3,3.4,86,0.00,,,0.00,Weather8,2013-11-22 13:39:00,
2013-11-22 08:44:00,50.9,46.8,30.00,SW,225,2.5,2.9,86,0.00,,,0.00,Weather8,2013-11-22 13:44:00,
2013-11-22 08:49:00,51.1,47.0,30.00,SW,225,2.0,2.9,86,0.00,,,0.00,Weather8,2013-11-22 13:49:00,
2013-11-22 08:54:00,51.7,47.9,30.00,WSW,247,3.8,3.8,87,0.00,,,0.00,Weather8,2013-11-22 13:54:00,
2013-11-22 08:59:00,52.2,48.1,30.00,West,270,1.6,3.8,86,0.00,,,0.00,Weather8,2013-11-22 13:59:00,
2013-11-22 09:04:00,52.6,48.4,30.00,SW,225,3.8,4.7,86,0.00,,,0.00,Weather8,2013-11-22 14:04:00,
2013-11-22 09:09:00,52.7,48.6,30.00,WSW,247,2.7,4.7,86,0.00,,,0.00,Weather8,2013-11-22 14:09:00,
2013-11-22 09:14:00,53.3,49.1,30.00,SW,225,4.0,5.1,86,0.00,,,0.00,Weather8,2013-11-22 14:14:00,
2013-11-22 09:19:00,53.3,49.1,30.00,SSW,202,3.6,5.1,86,0.00,,,0.00,Weather8,2013-11-22 14:19:00,
2013-11-22 09:24:00,53.5,49.1,30.00,SSW,202,4.9,5.1,85,0.00,,,0.00,Weather8,2013-11-22 14:24:00,
2013-11-22 09:29:00,53.6,49.2,29.99,SW,225,1.8,4.9,85,0.00,,,0.00,Weather8,2013-11-22 14:29:00,
2013-11-22 09:34:00,53.6,49.2,29.99,WSW,247,3.1,4.9,85,0.00,,,0.00,Weather8,2013-11-22 14:34:00,
2013-11-22 09:39:00,53.6,49.2,29.99,SSW,202,3.6,3.6,85,0.00,,,0.00,Weather8,2013-11-22 14:39:00,
2013-11-22 09:44:00,53.6,49.0,29.99,West,270,0.4,3.6,84,0.00,,,0.00,Weather8,2013-11-22 14:44:00,
2013-11-22 09:49:00,53.8,49.1,29.98,SSW,202,2.5,3.6,84,0.00,,,0.00,Weather8,2013-11-22 14:49:00,
2013-11-22 09:54:00,54.0,49.2,29.98,SW,225,2.7,3.1,84,0.00,,,0.00,Weather8,2013-11-22 14:54:00,
2013-11-22 09:59:00,54.2,49.8,29.98,SSE,157,2.0,3.4,85,0.00,,,0.00,Weather8,2013-11-22 14:59:00,
2013-11-22 10:05:00,54.2,49.4,29.98,SSW,202,1.6,3.4,84,0.00,,,0.00,Weather8,2013-11-22 15:05:00,
2013-11-22 10:10:00,54.2,49.8,29.97,SW,225,1.8,2.5,85,0.00,,,0.00,Weather8,2013-11-22 15:10:00,
2013-11-22 10:15:00,54.2,49.8,29.97,WSW,247,3.1,3.8,85,0.00,,,0.00,Weather8,2013-11-22 15:15:00,
2013-11-22 10:20:00,54.0,49.9,29.97,South,180,3.8,3.8,86,0.00,,,0.00,Weather8,2013-11-22 15:20:00,
2013-11-22 10:25:00,54.0,49.9,29.97,SW,225,1.1,3.8,86,0.00,,,0.00,Weather8,2013-11-22 15:25:00,
2013-11-22 10:30:00,54.0,49.9,29.97,WSW,247,1.1,3.8,86,0.00,,,0.00,Weather8,2013-11-22 15:30:00,
2013-11-22 10:35:00,53.8,49.7,29.96,WNW,292,1.8,5.1,86,0.00,,,0.00,Weather8,2013-11-22 15:35:00,
2013-11-22 10:40:00,53.8,49.7,29.96,SW,225,1.8,5.1,86,0.00,,,0.00,Weather8,2013-11-22 15:40:00,
2013-11-22 10:45:00,53.8,49.7,29.95,WNW,292,3.8,5.1,86,0.00,,,0.00,Weather8,2013-11-22 15:45:00,
2013-11-22 10:50:00,54.0,49.9,29.95,NNW,337,0.4,3.8,86,0.00,,,0.00,Weather8,2013-11-22 15:50:00,
2013-11-22 10:55:00,54.0,49.9,29.95,WNW,292,2.5,3.8,86,0.00,,,0.00,Weather8,2013-11-22 15:55:00,
2013-11-22 11:00:00,54.0,49.9,29.95,SW,225,3.1,3.4,86,0.00,,,0.00,Weather8,2013-11-22 16:00:00,
2013-11-22 11:05:00,54.2,50.0,29.94,WSW,247,1.8,3.4,86,0.00,,,0.00,Weather8,2013-11-22 16:05:00,
2013-11-22 11:10:00,54.4,50.2,29.93,WSW,247,1.3,6.0,86,0.00,,,0.00,Weather8,2013-11-22 16:10:00,
2013-11-22 11:15:00,54.5,50.4,29.92,SSW,202,1.1,6.0,86,0.00,,,0.00,Weather8,2013-11-22 16:15:00,
2013-11-22 11:20:00,54.7,50.6,29.93,WSW,247,4.5,4.5,86,0.00,,,0.00,Weather8,2013-11-22 16:20:00,
2013-11-22 11:25:00,54.9,50.8,29.93,SW,225,3.1,7.4,86,0.00,,,0.00,Weather8,2013-11-22 16:25:00,
2013-11-22 11:30:00,55.1,51.0,29.92,SW,225,1.8,7.4,86,0.00,,,0.00,Weather8,2013-11-22 16:30:00,
2013-11-22 11:35:00,55.3,51.1,29.92,NW,315,2.2,6.0,86,0.00,,,0.00,Weather8,2013-11-22 16:35:00,
2013-11-22 11:40:00,55.4,50.9,29.92,WSW,247,2.7,6.0,85,0.00,,,0.00,Weather8,2013-11-22 16:40:00,
2013-11-22 11:45:00,55.6,51.1,29.91,South,180,1.8,2.7,85,0.00,,,0.00,Weather8,2013-11-22 16:45:00,
2013-11-22 11:50:00,55.8,50.9,29.91,NW,315,2.7,6.7,84,0.00,,,0.00,Weather8,2013-11-22 16:50:00,
2013-11-22 11:55:00,55.8,50.9,29.91,WSW,247,1.8,6.7,84,0.00,,,0.00,Weather8,2013-11-22 16:55:00,
2013-11-22 12:00:00,56.0,51.1,29.91,SW,225,1.1,5.4,84,0.00,,,0.00,Weather8,2013-11-22 17:00:00,
2013-11-22 12:05:00,56.2,51.0,29.91,WNW,292,4.7,4.7,83,0.00,,,0.00,Weather8,2013-11-22 17:05:00,
2013-11-22 12:10:00,56.2,50.7,29.90,WNW,292,2.7,4.7,82,0.00,,,0.00,Weather8,2013-11-22 17:10:00,
2013-11-22 12:15:00,56.3,50.9,29.90,West,270,4.0,5.1,82,0.00,,,0.00,Weather8,2013-11-22 17:15:00,
2013-11-22 12:20:00,56.5,51.4,29.90,WSW,247,0.7,5.1,83,0.00,,,0.00,Weather8,2013-11-22 17:20:00,
2013-11-22 12:25:00,57.1,51.9,29.90,SSW,202,4.0,4.7,83,0.00,,,0.00,Weather8,2013-11-22 17:25:00,
2013-11-22 12:30:00,57.6,52.1,29.89,NNW,337,4.7,4.7,82,0.00,,,0.00,Weather8,2013-11-22 17:30:00,
2013-11-22 12:35:00,57.8,51.7,29.89,SW,225,4.5,4.7,80,0.00,,,0.00,Weather8,2013-11-22 17:35:00,
2013-11-22 12:40:00,58.1,51.7,29.89,West,270,2.5,4.7,79,0.00,,,0.00,Weather8,2013-11-22 17:40:00,
2013-11-22 12:45:00,58.3,51.8,29.89,SSW,202,4.3,4.9,79,0.00,,,0.00,Weather8,2013-11-22 17:45:00,
2013-11-22 12:50:00,58.3,51.5,29.88,NNW,337,1.3,4.9,78,0.00,,,0.00,Weather8,2013-11-22 17:50:00,
2013-11-22 12:55:00,58.3,51.5,29.88,West,270,1.8,4.3,78,0.00,,,0.00,Weather8,2013-11-22 17:55:00,
2013-11-22 13:00:00,58.5,51.7,29.88,West,270,3.4,6.3,78,0.00,,,0.00,Weather8,2013-11-22 18:00:00,
2013-11-22 13:05:00,58.5,50.9,29.88,SSW,202,1.8,6.3,76,0.00,,,0.00,Weather8,2013-11-22 18:05:00,
2013-11-22 13:10:00,58.5,51.3,29.87,NNW,337,0.7,4.3,77,0.00,,,0.00,Weather8,2013-11-22 18:10:00,
2013-11-22 13:15:00,58.5,51.3,29.88,WNW,292,1.1,3.8,77,0.00,,,0.00,Weather8,2013-11-22 18:15:00,
2013-11-22 13:21:00,58.5,51.3,29.87,WNW,292,2.2,3.4,77,0.00,,,0.00,Weather8,2013-11-22 18:21:00,
2013-11-22 13:26:00,58.7,51.5,29.87,SW,225,2.5,3.1,77,0.00,,,0.00,Weather8,2013-11-22 18:26:00,
2013-11-22 13:31:00,58.7,51.1,29.87,SSW,202,1.8,2.7,76,0.00,,,0.00,Weather8,2013-11-22 18:31:00,
2013-11-22 13:36:00,58.9,51.3,29.87,West,270,3.4,3.8,76,0.00,,,0.00,Weather8,2013-11-22 18:36:00,
2013-11-22 13:41:00,59.0,51.5,29.87,SW,225,3.1,3.8,76,0.00,,,0.00,Weather8,2013-11-22 18:41:00,
2013-11-22 13:46:00,59.0,51.1,29.87,NW,315,3.6,3.6,75,0.00,,,0.00,Weather8,2013-11-22 18:46:00,
2013-11-22 13:51:00,58.9,50.9,29.86,West,270,1.1,3.6,75,0.00,,,0.00,Weather8,2013-11-22 18:51:00,
2013-11-22 13:56:00,59.0,51.1,29.85,WSW,247,1.8,3.6,75,0.00,,,0.00,Weather8,2013-11-22 18:56:00,
2013-11-22 14:01:00,59.0,51.1,29.85,NNW,337,1.1,2.2,75,0.00,,,0.00,Weather8,2013-11-22 19:01:00,
2013-11-22 14:06:00,58.9,50.9,29.85,West,270,2.7,2.7,75,0.00,,,0.00,Weather8,2013-11-22 19:06:00,
2013-11-22 14:11:00,58.7,51.1,29.85,West,270,1.6,4.0,76,0.00,,,0.00,Weather8,2013-11-22 19:11:00,
2013-11-22 14:16:00,58.7,51.1,29.85,WNW,292,1.1,4.0,76,0.00,,,0.00,Weather8,2013-11-22 19:16:00,
2013-11-22 14:21:00,58.7,51.1,29.86,WSW,247,0.9,2.5,76,0.00,,,0.00,Weather8,2013-11-22 19:21:00,
2013-11-22 14:26:00,58.5,50.9,29.85,West,270,1.8,2.5,76,0.00,,,0.00,Weather8,2013-11-22 19:26:00,
2013-11-22 14:31:00,58.5,50.9,29.85,WNW,292,0.4,2.5,76,0.00,,,0.00,Weather8,2013-11-22 19:31:00,
2013-11-22 14:36:00,58.7,51.1,29.85,WSW,247,2.5,2.5,76,0.00,,,0.00,Weather8,2013-11-22 19:36:00,
2013-11-22 14:41:00,58.7,51.1,29.85,WNW,292,2.7,4.0,76,0.00,,,0.00,Weather8,2013-11-22 19:41:00,
2013-11-22 14:46:00,58.5,50.9,29.84,South,180,1.8,4.0,76,0.00,,,0.00,Weather8,2013-11-22 19:46:00,
2013-11-22 14:51:00,58.5,50.9,29.84,SSW,202,0.4,2.7,76,0.00,,,0.00,Weather8,2013-11-22 19:51:00,
2013-11-22 14:56:00,58.5,50.6,29.84,SW,225,1.3,2.7,75,0.00,,,0.00,Weather8,2013-11-22 19:56:00,
2013-11-22 15:01:00,58.5,50.9,29.84,NW,315,0.9,2.7,76,0.00,,,0.00,Weather8,2013-11-22 20:01:00,
2013-11-22 15:06:00,58.3,50.4,29.84,SW,225,2.0,2.5,75,0.00,,,0.00,Weather8,2013-11-22 20:06:00,
2013-11-22 15:11:00,58.1,50.6,29.84,WNW,292,0.4,2.0,76,0.00,,,0.00,Weather8,2013-11-22 20:11:00,
2013-11-22 15:16:00,58.1,50.6,29.84,WNW,292,2.5,2.5,76,0.00,,,0.00,Weather8,2013-11-22 20:16:00,
2013-11-22 15:21:00,58.0,50.4,29.85,West,270,1.8,3.1,76,0.00,,,0.00,Weather8,2013-11-22 20:21:00,
2013-11-22 15:26:00,58.0,50.4,29.84,SW,225,0.4,3.1,76,0.00,,,0.00,Weather8,2013-11-22 20:26:00,
2013-11-22 15:31:00,58.0,50.4,29.84,West,270,0.7,3.1,76,0.00,,,0.00,Weather8,2013-11-22 20:31:00,
2013-11-22 15:36:00,57.8,50.2,29.84,WSW,247,0.4,3.1,76,0.00,,,0.00,Weather8,2013-11-22 20:36:00,
2013-11-22 15:41:00,57.6,50.0,29.84,SW,225,1.1,3.1,76,0.00,,,0.00,Weather8,2013-11-22 20:41:00,
2013-11-22 15:46:00,57.6,50.0,29.84,WNW,292,1.1,1.6,76,0.00,,,0.00,Weather8,2013-11-22 20:46:00,
2013-11-22 15:51:00,57.4,49.9,29.83,SW,225,0.7,1.3,76,0.00,,,0.00,Weather8,2013-11-22 20:51:00,
2013-11-22 15:56:00,57.4,49.9,29.83,SW,225,0.2,2.5,76,0.00,,,0.00,Weather8,2013-11-22 20:56:00,
2013-11-22 16:01:00,57.4,49.9,29.84,WNW,292,0.7,2.5,76,0.00,,,0.00,Weather8,2013-11-22 21:01:00,
2013-11-22 16:06:00,57.2,50.0,29.83,SW,225,1.1,1.1,77,0.00,,,0.00,Weather8,2013-11-22 21:06:00,
2013-11-22 16:11:00,57.1,49.9,29.83,SW,225,0.4,1.1,77,0.00,,,0.00,Weather8,2013-11-22 21:11:00,
2013-11-22 16:16:00,56.9,49.7,29.83,WSW,247,0.4,1.3,77,0.00,,,0.00,Weather8,2013-11-22 21:16:00,
2013-11-22 16:21:00,56.7,49.5,29.83,SSW,202,0.7,1.3,77,0.00,,,0.00,Weather8,2013-11-22 21:21:00,
2013-11-22 16:26:00,56.5,49.7,29.82,North,0,0.2,2.9,78,0.00,,,0.00,Weather8,2013-11-22 21:26:00,
2013-11-22 16:31:00,56.3,49.5,29.82,SW,225,0.7,2.9,78,0.00,,,0.00,Weather8,2013-11-22 21:31:00,
2013-11-22 16:36:00,56.2,49.3,29.81,SW,225,0.4,2.9,78,0.00,,,0.00,Weather8,2013-11-22 21:36:00,
2013-11-22 16:41:00,56.0,49.1,29.82,SW,225,1.1,1.6,78,0.00,,,0.00,Weather8,2013-11-22 21:41:00,
2013-11-22 16:46:00,55.8,49.0,29.82,WSW,247,0.2,1.1,78,0.00,,,0.00,Weather8,2013-11-22 21:46:00,
2013-11-22 16:51:00,55.6,49.1,29.82,WSW,247,1.6,1.6,79,0.00,,,0.00,Weather8,2013-11-22 21:51:00,
2013-11-22 16:56:00,55.4,49.0,29.82,WNW,292,0.2,1.6,79,0.00,,,0.00,Weather8,2013-11-22 21:56:00,
2013-11-22 17:01:00,55.4,48.6,29.81,SSW,202,1.1,1.6,78,0.00,,,0.00,Weather8,2013-11-22 22:01:00,
2013-11-22 17:06:00,55.1,48.3,29.82,SW,225,1.1,1.8,78,0.00,,,0.00,Weather8,2013-11-22 22:06:00,
2013-11-22 17:11:00,55.1,48.3,29.81,SW,225,1.1,1.8,78,0.00,,,0.00,Weather8,2013-11-22 22:11:00,
2013-11-22 17:16:00,54.9,48.5,29.81,SW,225,0.4,1.6,79,0.00,,,0.00,Weather8,2013-11-22 22:16:00,
2013-11-22 17:21:00,54.7,48.3,29.81,SSW,202,1.8,1.8,79,0.00,,,0.00,Weather8,2013-11-22 22:21:00,
2013-11-22 17:26:00,54.5,48.2,29.81,South,180,0.4,1.8,79,0.00,,,0.00,Weather8,2013-11-22 22:26:00,
2013-11-22 17:31:00,54.5,48.2,29.81,WSW,247,2.7,2.7,79,0.00,,,0.00,Weather8,2013-11-22 22:31:00,
2013-11-22 17:36:00,54.4,48.0,29.81,SW,225,1.8,2.7,79,0.00,,,0.00,Weather8,2013-11-22 22:36:00,
2013-11-22 17:41:00,54.4,48.0,29.81,SSW,202,0.0,2.7,79,0.00,,,0.00,Weather8,2013-11-22 22:41:00,
2013-11-22 17:46:00,54.4,48.3,29.81,SSW,202,1.1,1.8,80,0.00,,,0.00,Weather8,2013-11-22 22:46:00,
2013-11-22 17:51:00,54.2,48.2,29.81,SW,225,2.2,2.2,80,0.00,,,0.00,Weather8,2013-11-22 22:51:00,
2013-11-22 17:56:00,54.2,48.2,29.81,North,0,0.0,2.2,80,0.00,,,0.00,Weather8,2013-11-22 22:56:00,
2013-11-22 18:01:00,54.0,48.1,29.81,SW,225,0.4,2.2,80,0.00,,,0.00,Weather8,2013-11-22 23:01:00,
2013-11-22 18:06:00,54.0,48.3,29.80,NW,315,1.8,1.8,81,0.00,,,0.00,Weather8,2013-11-22 23:06:00,
2013-11-22 18:11:00,54.0,48.3,29.80,SSW,202,0.0,1.8,81,0.00,,,0.00,Weather8,2013-11-22 23:11:00,
2013-11-22 18:16:00,53.8,48.2,29.80,West,270,1.6,1.8,81,0.00,,,0.00,Weather8,2013-11-22 23:16:00,
2013-11-22 18:21:00,53.8,48.2,29.79,SW,225,1.8,2.7,81,0.00,,,0.00,Weather8,2013-11-22 23:21:00,
2013-11-22 18:26:00,53.8,48.2,29.79,SW,225,0.4,2.7,81,0.00,,,0.00,Weather8,2013-11-22 23:26:00,
2013-11-22 18:31:00,53.6,48.0,29.79,SSW,202,0.9,1.8,81,0.00,,,0.00,Weather8,2013-11-22 23:31:00,
2013-11-22 18:36:00,53.6,48.0,29.79,SSW,202,1.6,1.6,81,0.00,,,0.00,Weather8,2013-11-22 23:36:00,
2013-11-22 18:41:00,53.6,48.3,29.79,South,180,0.4,3.8,82,0.00,,,0.00,Weather8,2013-11-22 23:41:00,
2013-11-22 18:46:00,53.6,48.3,29.79,SSW,202,0.9,3.8,82,0.00,,,0.00,Weather8,2013-11-22 23:46:00,
2013-11-22 18:51:00,53.6,48.3,29.79,SSW,202,0.4,1.8,82,0.00,,,0.00,Weather8,2013-11-22 23:51:00,
2013-11-22 18:56:00,53.5,48.2,29.79,West,270,0.4,1.6,82,0.00,,,0.00,Weather8,2013-11-22 23:56:00,
2013-11-22 19:01:00,53.5,48.2,29.79,WNW,292,0.7,1.6,82,0.00,,,0.00,Weather8,2013-11-23 00:01:00,
2013-11-22 19:06:00,53.5,48.2,29.79,West,270,1.8,1.8,82,0.00,,,0.00,Weather8,2013-11-23 00:06:00,
2013-11-22 19:11:00,53.5,48.2,29.79,WSW,247,1.1,1.8,82,0.00,,,0.00,Weather8,2013-11-23 00:11:00,
2013-11-22 19:16:00,53.3,48.0,29.79,WNW,292,0.9,2.9,82,0.00,,,0.00,Weather8,2013-11-23 00:16:00,
2013-11-22 19:21:00,53.3,48.0,29.79,NW,315,1.6,2.9,82,0.00,,,0.00,Weather8,2013-11-23 00:21:00,
2013-11-22 19:26:00,53.3,48.0,29.79,West,270,0.0,1.6,82,0.00,,,0.00,Weather8,2013-11-23 00:26:00,
2013-11-22 19:31:00,53.3,48.0,29.79,WNW,292,0.2,1.6,82,0.00,,,0.00,Weather8,2013-11-23 00:31:00,
2013-11-22 19:36:00,53.3,48.0,29.79,SSW,202,0.2,2.2,82,0.00,,,0.00,Weather8,2013-11-23 00:36:00,
2013-11-22 19:41:00,53.3,48.0,29.78,SW,225,0.4,2.2,82,0.00,,,0.00,Weather8,2013-11-23 00:41:00,
2013-11-22 19:46:00,53.3,48.0,29.78,SSW,202,1.1,1.8,82,0.00,,,0.00,Weather8,2013-11-23 00:46:00,
2013-11-22 19:51:00,53.1,47.8,29.78,SW,225,0.4,1.8,82,0.00,,,0.00,Weather8,2013-11-23 00:51:00,
2013-11-22 19:56:00,53.3,48.0,29.78,WSW,247,0.4,1.3,82,0.00,,,0.00,Weather8,2013-11-23 00:56:00,
2013-11-22 20:01:00,53.1,47.8,29.78,WNW,292,0.2,1.1,82,0.00,,,0.00,Weather8,2013-11-23 01:01:00,
2013-11-22 20:06:00,53.1,48.1,29.78,SW,225,1.1,1.3,83,0.00,,,0.00,Weather8,2013-11-23 01:06:00,
2013-11-22 20:11:00,53.1,48.1,29.78,West,270,0.2,1.6,83,0.00,,,0.00,Weather8,2013-11-23 01:11:00,
2013-11-22 20:16:00,53.1,47.8,29.78,SW,225,0.7,1.8,82,0.00,,,0.00,Weather8,2013-11-23 01:16:00,
2013-11-22 20:21:00,53.1,48.1,29.78,SW,225,1.3,1.8,83,0.00,,,0.00,Weather8,2013-11-23 01:21:00,
2013-11-22 20:26:00,53.1,48.1,29.78,WSW,247,0.0,1.3,83,0.00,,,0.00,Weather8,2013-11-23 01:26:00,
2013-11-22 20:31:00,53.1,48.1,29.78,SW,225,1.1,1.3,83,0.00,,,0.00,Weather8,2013-11-23 01:31:00,
2013-11-22 20:36:00,53.1,48.1,29.78,SW,225,0.0,1.1,83,0.00,,,0.00,Weather8,2013-11-23 01:36:00,
2013-11-22 20:41:00,53.1,48.1,29.78,WSW,247,0.4,1.1,83,0.00,,,0.00,Weather8,2013-11-23 01:41:00,
2013-11-22 20:46:00,53.1,48.1,29.77,WSW,247,0.0,1.1,83,0.00,,,0.00,Weather8,2013-11-23 01:46:00,
2013-11-22 20:51:00,53.1,48.1,29.77,SW,225,1.1,1.3,83,0.00,,,0.00,Weather8,2013-11-23 01:51:00,
2013-11-22 20:56:00,53.1,48.1,29.77,WSW,247,1.8,1.8,83,0.00,,,0.00,Weather8,2013-11-23 01:56:00,
2013-11-22 21:01:00,53.1,48.1,29.77,SW,225,0.9,1.8,83,0.00,,,0.00,Weather8,2013-11-23 02:01:00,
2013-11-22 21:06:00,53.1,48.1,29.77,SW,225,0.4,1.8,83,0.00,,,0.00,Weather8,2013-11-23 02:06:00,
2013-11-22 21:11:00,52.9,48.3,29.77,SSW,202,1.1,1.3,84,0.00,,,0.00,Weather8,2013-11-23 02:11:00,
2013-11-22 21:16:00,52.9,48.3,29.76,SSW,202,1.3,1.3,84,0.00,,,0.00,Weather8,2013-11-23 02:16:00,
2013-11-22 21:21:00,52.9,48.3,29.76,West,270,1.1,2.9,84,0.00,,,0.00,Weather8,2013-11-23 02:21:00,
2013-11-22 21:26:00,52.9,48.3,29.76,WSW,247,1.6,2.9,84,0.00,,,0.00,Weather8,2013-11-23 02:26:00,
2013-11-22 21:31:00,52.7,48.3,29.76,SW,225,0.9,2.9,85,0.00,,,0.00,Weather8,2013-11-23 02:31:00,
2013-11-22 21:36:00,52.7,48.3,29.76,SSW,202,0.4,1.8,85,0.00,,,0.00,Weather8,2013-11-23 02:36:00,
2013-11-22 21:41:00,52.7,48.3,29.76,West,270,1.1,2.0,85,0.00,,,0.00,Weather8,2013-11-23 02:41:00,
2013-11-22 21:46:00,52.7,48.3,29.75,SSW,202,1.6,2.0,85,0.00,,,0.00,Weather8,2013-11-23 02:46:00,
2013-11-22 21:51:00,52.7,48.6,29.75,SW,225,1.1,1.8,86,0.00,,,0.00,Weather8,2013-11-23 02:51:00,
2013-11-22 21:56:00,52.9,48.8,29.75,SSW,202,1.3,2.7,86,0.00,,,0.00,Weather8,2013-11-23 02:56:00,
2013-11-22 22:01:00,52.9,48.8,29.75,West,270,0.9,2.7,86,0.00,,,0.00,Weather8,2013-11-23 03:01:00,
2013-11-22 22:06:00,52.9,48.8,29.75,SW,225,1.3,3.4,86,0.00,,,0.00,Weather8,2013-11-23 03:06:00,
2013-11-22 22:11:00,52.9,48.8,29.74,WSW,247,0.7,3.4,86,0.00,,,0.00,Weather8,2013-11-23 03:11:00,
2013-11-22 22:16:00,53.1,49.0,29.74,NW,315,1.3,3.4,86,0.00,,,0.00,Weather8,2013-11-23 03:16:00,
2013-11-22 22:21:00,53.1,49.0,29.74,NW,315,1.3,1.6,86,0.00,,,0.00,Weather8,2013-11-23 03:21:00,
2013-11-22 22:26:00,53.1,49.0,29.74,NW,315,1.3,1.3,86,0.00,,,0.00,Weather8,2013-11-23 03:26:00,
2013-11-22 22:31:00,53.1,49.0,29.74,NW,315,1.3,1.3,86,0.00,,,0.00,Weather8,2013-11-23 03:31:00,
2013-11-22 22:36:00,53.1,49.0,29.74,NW,315,1.3,1.3,86,0.00,,,0.00,Weather8,2013-11-23 03:36:00,
2013-11-22 22:41:00,53.1,49.0,29.74,NW,315,1.3,1.3,86,0.00,,,0.00,Weather8,2013-11-23 03:41:00,
2013-11-22 22:46:00,53.3,49.1,29.73,WSW,247,2.7,2.7,86,0.00,,,0.00,Weather8,2013-11-23 03:46:00,
2013-11-22 22:51:00,53.3,49.5,29.73,WSW,247,0.9,2.7,87,0.00,,,0.00,Weather8,2013-11-23 03:51:00,
2013-11-22 22:56:00,53.3,49.5,29.73,WNW,292,2.5,2.7,87,0.00,,,0.00,Weather8,2013-11-23 03:56:00,
2013-11-22 23:01:00,53.5,49.7,29.73,West,270,0.7,3.1,87,0.00,,,0.00,Weather8,2013-11-23 04:01:00,
2013-11-22 23:06:00,53.5,49.7,29.74,West,270,1.1,3.1,87,0.00,,,0.00,Weather8,2013-11-23 04:06:00,
2013-11-22 23:11:00,53.5,49.7,29.73,NW,315,1.6,3.4,87,0.00,,,0.00,Weather8,2013-11-23 04:11:00,
2013-11-22 23:16:00,53.5,49.7,29.73,West,270,0.7,3.4,87,0.00,,,0.00,Weather8,2013-11-23 04:16:00,
2013-11-22 23:21:00,53.5,49.7,29.73,WNW,292,1.1,2.2,87,0.00,,,0.00,Weather8,2013-11-23 04:21:00,
2013-11-22 23:26:00,53.5,49.7,29.73,WSW,247,1.1,2.2,87,0.00,,,0.00,Weather8,2013-11-23 04:26:00,
2013-11-22 23:31:00,53.3,49.5,29.73,SW,225,1.6,3.8,87,0.00,,,0.00,Weather8,2013-11-23 04:31:00,
2013-11-22 23:36:00,53.3,49.5,29.72,NW,315,0.9,3.8,87,0.00,,,0.00,Weather8,2013-11-23 04:36:00,
2013-11-22 23:41:00,53.3,49.5,29.72,WSW,247,2.2,2.5,87,0.00,,,0.00,Weather8,2013-11-23 04:41:00,
2013-11-22 23:46:00,53.3,49.5,29.72,SW,225,0.4,2.2,87,0.00,,,0.00,Weather8,2013-11-23 04:46:00,
2013-11-22 23:51:00,53.3,49.5,29.71,NW,315,2.0,2.2,87,0.00,,,0.00,Weather8,2013-11-23 04:51:00,
2013-11-22 23:56:00,53.3,49.5,29.72,North,0,2.5,3.4,87,0.00,,,0.00,Weather8,2013-11-23 04:56:00,